createdAt,value
2018-05-11T00:00:35.912Z,97211.02
2018-05-11T00:03:03.442Z,97214.44
2018-05-11T00:05:30.923Z,97213.14
2018-05-11T00:07:58.545Z,97214.84
2018-05-11T00:10:26.046Z,97216.14
2018-05-11T00:12:53.567Z,97211.87
2018-05-11T00:15:21.113Z,97214.86
2018-05-11T00:17:48.674Z,97212.72
2018-05-11T00:20:16.199Z,97216.97
2018-05-11T00:22:43.757Z,97222.48
2018-05-11T00:25:11.401Z,97222.07
2018-05-11T00:27:40.694Z,97214.84
2018-05-11T00:30:08.281Z,97211.86
2018-05-11T00:32:35.807Z,97212.70
2018-05-11T00:35:05.596Z,97213.57
2018-05-11T00:37:34.011Z,97222.08
2018-05-11T00:40:01.690Z,97219.53
2018-05-11T00:42:29.273Z,97216.97
2018-05-11T00:44:58.543Z,97217.83
2018-05-11T00:47:26.118Z,97209.72
2018-05-11T00:49:53.678Z,97204.19
2018-05-11T00:52:21.210Z,97205.88
2018-05-11T00:54:48.728Z,97202.08
2018-05-11T00:57:19.145Z,97205.44
2018-05-11T00:59:46.695Z,97209.69
2018-05-11T01:02:14.332Z,97211.41
2018-05-11T01:04:41.874Z,97208.44
2018-05-11T01:07:09.484Z,97214.39
2018-05-11T01:09:37.050Z,97218.21
2018-05-11T01:12:04.712Z,97216.94
2018-05-11T01:14:33.917Z,97215.22
2018-05-11T01:17:01.555Z,97216.94
2018-05-11T01:19:29.041Z,97222.44
2018-05-11T01:21:56.601Z,97226.69
2018-05-11T01:24:24.215Z,97232.20
2018-05-11T01:26:51.776Z,97231.34
2018-05-11T01:29:19.408Z,97229.64
2018-05-11T01:31:46.943Z,97228.80
2018-05-11T01:34:14.528Z,97224.54
2018-05-11T01:36:42.307Z,97223.25
2018-05-11T01:39:09.825Z,97227.50
2018-05-11T01:41:37.427Z,97228.80
2018-05-11T01:44:05.697Z,97232.59
2018-05-11T01:46:33.268Z,97232.61
2018-05-11T01:49:00.802Z,97239.38
2018-05-11T01:51:28.335Z,97236.84
2018-05-11T01:53:55.850Z,97240.20
2018-05-11T01:56:25.267Z,97234.72
2018-05-11T01:58:52.798Z,97235.14
2018-05-11T02:01:20.333Z,97235.58
2018-05-11T02:03:47.916Z,97237.70
2018-05-11T02:06:15.501Z,97236.44
2018-05-11T02:08:43.068Z,97233.42
2018-05-11T02:11:10.592Z,97236.81
2018-05-11T02:13:38.218Z,97238.08
2018-05-11T02:16:05.755Z,97240.20
2018-05-11T02:18:33.422Z,97243.15
2018-05-11T02:21:00.870Z,97242.75
2018-05-11T02:23:28.467Z,97245.69
2018-05-11T02:25:56.117Z,97241.41
2018-05-11T02:28:23.711Z,97235.05
2018-05-11T02:30:51.326Z,97241.85
2018-05-11T02:33:20.261Z,97242.28
2018-05-11T02:35:47.928Z,97236.71
2018-05-11T02:38:15.449Z,97237.57
2018-05-11T02:40:42.978Z,97240.08
2018-05-11T02:43:10.522Z,97232.86
2018-05-11T02:45:38.087Z,97241.31
2018-05-11T02:48:05.610Z,97241.72
2018-05-11T02:50:33.160Z,97234.94
2018-05-11T02:53:01.076Z,97237.05
2018-05-11T02:55:28.605Z,97231.52
2018-05-11T02:57:56.162Z,97230.26
2018-05-11T03:00:23.769Z,97234.94
2018-05-11T03:02:51.426Z,97234.92
2018-05-11T03:05:18.971Z,97235.38
2018-05-11T03:07:48.400Z,97238.31
2018-05-11T03:10:15.937Z,97234.06
2018-05-11T03:12:43.487Z,97225.59
2018-05-11T03:15:11.087Z,97236.21
2018-05-11T03:17:38.599Z,97235.77
2018-05-11T03:20:06.165Z,97238.31
2018-05-11T03:22:33.668Z,97235.33
2018-05-11T03:25:01.344Z,97234.03
2018-05-11T03:27:30.098Z,97236.58
2018-05-11T03:29:57.649Z,97232.78
2018-05-11T03:32:25.180Z,97233.64
2018-05-11T03:34:52.682Z,97233.20
2018-05-11T03:37:20.287Z,97237.00
2018-05-11T03:39:47.851Z,97232.30
2018-05-11T03:42:15.383Z,97224.70
2018-05-11T03:44:42.896Z,97229.36
2018-05-11T03:47:10.469Z,97227.25
2018-05-11T03:49:38.118Z,97224.28
2018-05-11T03:52:05.658Z,97220.48
2018-05-11T03:54:33.439Z,97226.40
2018-05-11T03:57:00.980Z,97233.20
2018-05-11T03:59:28.493Z,97232.34
2018-05-11T04:02:07.945Z,97230.23
2018-05-11T04:04:47.483Z,97226.86
2018-05-11T04:07:26.760Z,97240.42
2018-05-11T04:09:54.295Z,97239.17
2018-05-11T04:12:21.956Z,97240.86
2018-05-11T04:14:49.492Z,97240.89
2018-05-11T04:17:17.225Z,97240.86
2018-05-11T04:19:44.802Z,97242.13
2018-05-11T04:22:12.324Z,97240.85
2018-05-11T04:24:39.918Z,97238.33
2018-05-11T04:27:07.460Z,97242.59
2018-05-11T04:29:35.009Z,97244.28
2018-05-11T04:32:03.261Z,97248.14
2018-05-11T04:34:30.796Z,97254.10
2018-05-11T04:36:58.357Z,97251.13
2018-05-11T04:39:25.875Z,97250.27
2018-05-11T04:41:53.473Z,97253.67
2018-05-11T04:44:21.006Z,97257.08
2018-05-11T04:46:48.567Z,97255.41
2018-05-11T04:49:16.269Z,97255.86
2018-05-11T04:51:43.806Z,97259.27
2018-05-11T04:54:11.339Z,97255.02
2018-05-11T04:56:38.861Z,97256.75
2018-05-11T04:59:06.383Z,97251.66
2018-05-11T05:01:34.010Z,97255.92
2018-05-11T05:04:01.651Z,97249.55
2018-05-11T05:06:29.923Z,97249.97
2018-05-11T05:08:57.446Z,97256.39
2018-05-11T05:11:24.967Z,97256.39
2018-05-11T05:13:52.553Z,97256.40
2018-05-11T05:16:20.078Z,97263.61
2018-05-11T05:18:47.609Z,97266.55
2018-05-11T05:21:15.135Z,97268.26
2018-05-11T05:23:42.661Z,97270.84
2018-05-11T05:26:10.297Z,97267.48
2018-05-11T05:28:37.901Z,97270.03
2018-05-11T05:31:05.499Z,97273.88
2018-05-11T05:33:33.130Z,97280.66
2018-05-11T05:36:00.722Z,97275.95
2018-05-11T05:38:28.360Z,97274.27
2018-05-11T05:40:55.873Z,97282.80
2018-05-11T05:43:26.032Z,97286.63
2018-05-11T05:45:55.550Z,97289.17
2018-05-11T05:48:23.068Z,97281.13
2018-05-11T05:50:50.593Z,97282.81
2018-05-11T05:53:18.177Z,97286.64
2018-05-11T05:55:45.728Z,97282.42
2018-05-11T05:58:13.336Z,97293.88
2018-05-11T06:00:41.054Z,97295.59
2018-05-11T06:03:08.705Z,97290.08
2018-05-11T06:05:36.370Z,97294.77
2018-05-11T06:08:03.917Z,97292.18
2018-05-11T06:10:31.495Z,97297.31
2018-05-11T06:12:59.648Z,97294.34
2018-05-11T06:15:27.200Z,97292.66
2018-05-11T06:17:55.513Z,97295.63
2018-05-11T06:20:23.083Z,97297.74
2018-05-11T06:22:52.418Z,97293.93
2018-05-11T06:25:20.061Z,97296.08
2018-05-11T06:27:47.727Z,97305.43
2018-05-11T06:30:15.245Z,97299.08
2018-05-11T06:32:42.809Z,97296.09
2018-05-11T06:35:10.411Z,97294.84
2018-05-11T06:37:37.965Z,97289.30
2018-05-11T06:40:05.483Z,97292.30
2018-05-11T06:42:32.999Z,97289.73
2018-05-11T06:45:03.231Z,97290.16
2018-05-11T06:47:32.887Z,97291.50
2018-05-11T06:50:00.571Z,97280.44
2018-05-11T06:52:28.179Z,97284.69
2018-05-11T06:54:55.739Z,97287.66
2018-05-11T06:57:24.132Z,97288.95
2018-05-11T06:59:51.711Z,97291.05
2018-05-11T07:02:19.266Z,97288.09
2018-05-11T07:04:46.915Z,97288.94
2018-05-11T07:07:14.501Z,97285.52
2018-05-11T07:09:43.792Z,97283.38
2018-05-11T07:12:11.337Z,97281.71
2018-05-11T07:14:40.018Z,97280.41
2018-05-11T07:17:07.571Z,97273.17
2018-05-11T07:19:35.191Z,97271.48
2018-05-11T07:22:02.838Z,97267.63
2018-05-11T07:24:30.496Z,97263.77
2018-05-11T07:26:58.052Z,97273.15
2018-05-11T07:29:26.345Z,97268.47
2018-05-11T07:31:54.126Z,97270.16
2018-05-11T07:34:21.666Z,97274.86
2018-05-11T07:36:49.966Z,97276.14
2018-05-11T07:39:17.484Z,97276.14
2018-05-11T07:41:45.175Z,97277.41
2018-05-11T07:44:12.853Z,97273.98
2018-05-11T07:46:40.519Z,97279.09
2018-05-11T07:49:08.127Z,97279.55
2018-05-11T07:51:36.465Z,97280.79
2018-05-11T07:54:04.032Z,97277.39
2018-05-11T07:56:31.564Z,97276.95
2018-05-11T07:58:59.149Z,97269.67
2018-05-11T08:01:26.693Z,97261.56
2018-05-11T08:03:54.273Z,97258.14
2018-05-11T08:06:23.454Z,97253.38
2018-05-11T08:08:51.019Z,97249.49
2018-05-11T08:11:18.561Z,97241.83
2018-05-11T08:13:48.717Z,97243.08
2018-05-11T08:16:16.251Z,97235.73
2018-05-11T08:18:43.817Z,97232.31
2018-05-11T08:21:11.357Z,97236.97
2018-05-11T08:23:38.921Z,97239.08
2018-05-11T08:26:06.507Z,97238.64
2018-05-11T08:28:34.073Z,97239.00
2018-05-11T08:31:01.615Z,97233.86
2018-05-11T08:33:31.804Z,97237.34
2018-05-11T08:35:59.450Z,97231.34
2018-05-11T08:38:27.040Z,97230.82
2018-05-11T08:40:56.317Z,97234.13
2018-05-11T08:43:23.860Z,97242.20
2018-05-11T08:45:51.382Z,97236.72
2018-05-11T08:48:19.024Z,97236.75
2018-05-11T08:50:48.481Z,97237.08
2018-05-11T08:53:16.075Z,97239.66
2018-05-11T08:55:43.864Z,97242.58
2018-05-11T08:58:11.531Z,97232.33
2018-05-11T09:00:39.779Z,97235.42
2018-05-11T09:03:07.437Z,97231.19
2018-05-11T09:05:34.907Z,97230.75
2018-05-11T09:08:02.585Z,97228.50
2018-05-11T09:10:30.133Z,97228.72
2018-05-11T09:12:57.697Z,97222.30
2018-05-11T09:15:25.219Z,97224.58
2018-05-11T09:17:52.782Z,97225.34
2018-05-11T09:20:20.389Z,97212.75
2018-05-11T09:22:47.907Z,97214.35
2018-05-11T09:25:15.562Z,97212.53
2018-05-11T09:27:43.911Z,97210.85
2018-05-11T09:30:11.509Z,97215.86
2018-05-11T09:32:39.763Z,97211.91
2018-05-11T09:35:07.405Z,97212.71
2018-05-11T09:37:34.943Z,97206.71
2018-05-11T09:40:02.545Z,97205.38
2018-05-11T09:42:32.387Z,97207.25
2018-05-11T09:44:59.907Z,97203.42
2018-05-11T09:47:27.507Z,97202.55
2018-05-11T09:49:55.159Z,97191.16
2018-05-11T09:52:22.721Z,97204.67
2018-05-11T09:54:50.347Z,97200.97
2018-05-11T09:57:17.975Z,97198.77
2018-05-11T09:59:45.517Z,97196.11
2018-05-11T10:02:13.091Z,97201.67
2018-05-11T10:04:40.637Z,97195.36
2018-05-11T10:07:08.227Z,97193.07
2018-05-11T10:09:35.725Z,97186.77
2018-05-11T10:12:03.284Z,97191.40
2018-05-11T10:14:33.209Z,97189.06
2018-05-11T10:17:00.757Z,97180.52
2018-05-11T10:19:28.334Z,97183.56
2018-05-11T10:21:57.617Z,97179.48
2018-05-11T10:24:25.219Z,97168.62
2018-05-11T10:26:52.753Z,97172.30
2018-05-11T10:29:20.316Z,97167.63
2018-05-11T10:31:47.875Z,97164.85
2018-05-11T10:34:15.494Z,97165.62
2018-05-11T10:36:43.012Z,97166.36
2018-05-11T10:39:10.648Z,97165.34
2018-05-11T10:41:38.206Z,97156.59
2018-05-11T10:44:05.754Z,97157.45
2018-05-11T10:46:33.352Z,97150.75
2018-05-11T10:49:01.009Z,97152.47
2018-05-11T10:51:28.549Z,97147.79
2018-05-11T10:53:56.102Z,97148.92
2018-05-11T10:56:23.645Z,97138.92
2018-05-11T10:58:51.185Z,97135.59
2018-05-11T11:01:18.739Z,97132.41
2018-05-11T11:03:46.291Z,97134.73
2018-05-11T11:06:13.863Z,97128.75
2018-05-11T11:08:41.433Z,97122.69
2018-05-11T11:11:08.956Z,97121.52
2018-05-11T11:23:21.585Z,97113.20
2018-05-11T11:25:49.213Z,97109.00
2018-05-11T11:28:16.757Z,97099.51
2018-05-11T11:30:44.345Z,97099.94
2018-05-11T11:33:13.858Z,97090.41
2018-05-11T11:35:41.433Z,97093.71
2018-05-11T11:38:09.029Z,97091.57
2018-05-11T11:40:36.679Z,97094.27
2018-05-11T11:43:04.215Z,97085.62
2018-05-11T11:45:33.027Z,97082.30
2018-05-11T11:48:00.701Z,97074.76
2018-05-11T11:50:28.250Z,97084.88
2018-05-11T11:52:55.935Z,97080.91
2018-05-11T11:58:08.051Z,97062.14
2018-05-11T12:00:35.525Z,97059.61
2018-05-11T12:03:03.015Z,97056.77
2018-05-11T12:05:30.486Z,97061.16
2018-05-11T12:07:57.959Z,97058.02
2018-05-11T12:10:25.488Z,97053.32
2018-05-11T12:12:52.967Z,97047.79
2018-05-11T12:15:20.481Z,97044.30
2018-05-11T12:17:47.996Z,97042.46
2018-05-11T12:20:15.496Z,97031.09
2018-05-11T12:22:42.987Z,97030.05
2018-05-11T12:25:10.501Z,97032.76
2018-05-11T12:27:37.984Z,97031.77
2018-05-11T12:30:05.488Z,97029.06
2018-05-11T12:32:32.997Z,97029.40
2018-05-11T12:35:00.503Z,97026.11
2018-05-11T12:37:28.001Z,97027.60
2018-05-11T12:39:55.489Z,97027.80
2018-05-11T12:42:22.988Z,97012.16
2018-05-11T12:44:50.515Z,97011.86
2018-05-11T12:47:18.054Z,97004.83
2018-05-11T12:49:45.596Z,96999.38
2018-05-11T12:52:13.057Z,97004.38
2018-05-11T12:54:40.568Z,97001.33
2018-05-11T12:57:08.029Z,97000.19
2018-05-11T12:59:35.513Z,96992.67
2018-05-11T13:02:03.010Z,96999.66
2018-05-11T13:04:30.501Z,96991.14
2018-05-11T13:06:58.004Z,96989.94
2018-05-11T13:09:25.513Z,96979.48
2018-05-11T13:11:53.039Z,96977.65
2018-05-11T13:14:20.521Z,96968.88
2018-05-11T13:16:48.014Z,96954.05
2018-05-11T13:19:15.536Z,96963.76
2018-05-11T13:21:43.016Z,96960.45
2018-05-11T13:24:10.584Z,96954.88
2018-05-11T13:26:38.102Z,96960.42
2018-05-11T13:29:05.578Z,96953.22
2018-05-11T13:31:33.071Z,96955.01
2018-05-11T13:34:00.552Z,96954.22
2018-05-11T13:36:28.066Z,96947.57
2018-05-11T13:38:55.564Z,96946.14
2018-05-11T13:41:23.036Z,96939.00
2018-05-11T13:43:50.722Z,96934.75
2018-05-11T13:46:18.198Z,96919.69
2018-05-11T13:48:45.699Z,96921.70
2018-05-11T13:51:13.173Z,96918.08
2018-05-11T13:53:40.711Z,96915.10
2018-05-11T13:56:08.343Z,96915.62
2018-05-11T13:58:35.783Z,96905.44
2018-05-11T14:01:03.254Z,96909.05
2018-05-11T14:03:30.838Z,96903.42
2018-05-11T14:05:58.278Z,96899.06
2018-05-11T14:08:25.760Z,96899.65
2018-05-11T14:10:53.250Z,96894.03
2018-05-11T14:13:20.744Z,96891.69
2018-05-11T14:15:48.245Z,96887.59
2018-05-11T14:18:15.716Z,96878.03
2018-05-11T14:20:43.210Z,96875.25
2018-05-11T14:23:10.674Z,96866.66
2018-05-11T14:25:38.170Z,96867.53
2018-05-11T14:28:05.899Z,96862.63
2018-05-11T14:30:33.646Z,96863.55
2018-05-11T14:33:01.130Z,96861.05
2018-05-11T14:35:28.773Z,96862.87
2018-05-11T14:37:56.274Z,96869.08
2018-05-11T14:40:23.785Z,96872.55
2018-05-11T14:42:51.506Z,96869.37
2018-05-11T14:45:18.976Z,96871.77
2018-05-11T14:47:46.538Z,96855.67
2018-05-11T14:50:14.037Z,96862.53
2018-05-11T14:52:41.531Z,96866.88
2018-05-11T14:55:09.004Z,96860.73
2018-05-11T14:57:36.500Z,96857.20
2018-05-11T15:00:03.993Z,96857.47
2018-05-11T15:02:31.721Z,96855.11
2018-05-11T15:04:59.220Z,96854.80
2018-05-11T15:07:26.695Z,96850.64
2018-05-11T15:09:54.208Z,96844.05
2018-05-11T15:12:21.699Z,96838.53
2018-05-11T15:14:49.207Z,96845.84
2018-05-11T15:17:17.003Z,96840.89
2018-05-11T15:19:44.512Z,96841.55
2018-05-11T15:22:11.987Z,96840.13
2018-05-11T15:24:39.450Z,96836.58
2018-05-11T15:27:07.245Z,96827.59
2018-05-11T15:29:34.714Z,96828.81
2018-05-11T15:32:02.226Z,96829.46
2018-05-11T15:34:29.955Z,96827.84
2018-05-11T15:36:57.425Z,96827.41
2018-05-11T15:39:24.929Z,96829.67
2018-05-11T15:41:52.382Z,96823.31
2018-05-11T15:44:19.913Z,96815.23
2018-05-11T15:46:47.463Z,96815.03
2018-05-11T15:49:14.936Z,96816.17
2018-05-11T15:51:42.417Z,96823.05
2018-05-11T15:54:09.908Z,96819.16
2018-05-11T15:56:37.390Z,96817.55
2018-05-11T15:59:04.951Z,96812.86
2018-05-11T16:01:32.353Z,96812.03
2018-05-11T16:03:59.866Z,96811.88
2018-05-11T16:06:27.349Z,96812.16
2018-05-11T16:08:54.816Z,96800.97
2018-05-11T16:11:22.317Z,96807.19
2018-05-11T16:13:49.780Z,96804.92
2018-05-11T16:16:17.249Z,96804.84
2018-05-11T16:18:44.737Z,96807.67
2018-05-11T16:21:12.209Z,96808.56
2018-05-11T16:23:39.704Z,96815.87
2018-05-11T16:26:07.190Z,96812.02
2018-05-11T16:28:34.674Z,96809.64
2018-05-11T16:31:02.135Z,96816.06
2018-05-11T16:33:29.621Z,96812.04
2018-05-11T16:35:57.144Z,96809.82
2018-05-11T16:38:24.605Z,96813.23
2018-05-11T16:40:52.104Z,96808.94
2018-05-11T16:43:19.604Z,96808.30
2018-05-11T16:45:47.078Z,96810.13
2018-05-11T16:48:14.550Z,96811.14
2018-05-11T16:50:42.062Z,96808.08
2018-05-11T16:53:09.563Z,96805.70
2018-05-11T16:55:37.041Z,96816.11
2018-05-11T16:58:04.535Z,96810.59
2018-05-11T17:00:32.014Z,96813.56
2018-05-11T17:02:59.536Z,96817.74
2018-05-11T17:05:26.986Z,96805.66
2018-05-11T17:07:54.479Z,96809.74
2018-05-11T17:10:21.952Z,96813.77
2018-05-11T17:12:49.414Z,96807.71
2018-05-11T17:15:16.906Z,96819.00
2018-05-11T17:17:44.397Z,96818.83
2018-05-11T17:20:11.882Z,96822.13
2018-05-11T17:22:39.449Z,96817.86
2018-05-11T17:25:06.900Z,96809.14
2018-05-11T17:27:34.376Z,96812.48
2018-05-11T17:30:01.916Z,96819.12
2018-05-11T17:32:29.361Z,96810.33
2018-05-11T17:34:56.877Z,96816.92
2018-05-11T17:37:24.470Z,96811.57
2018-05-11T17:39:51.948Z,96820.38
2018-05-11T17:42:19.449Z,96821.00
2018-05-11T17:44:46.923Z,96828.98
2018-05-11T17:47:14.417Z,96824.52
2018-05-11T17:49:41.897Z,96827.20
2018-05-11T17:52:09.393Z,96833.78
2018-05-11T17:54:36.864Z,96830.09
2018-05-11T17:57:04.465Z,96835.05
2018-05-11T17:59:32.191Z,96833.59
2018-05-11T18:01:59.655Z,96843.17
2018-05-11T18:04:27.159Z,96843.73
2018-05-11T18:06:54.621Z,96841.76
2018-05-11T18:09:22.098Z,96839.79
2018-05-11T18:11:49.569Z,96842.59
2018-05-11T18:14:17.058Z,96841.86
2018-05-11T18:16:44.518Z,96841.59
2018-05-11T18:19:12.025Z,96841.33
2018-05-11T18:21:40.941Z,96843.28
2018-05-11T18:24:08.402Z,96845.20
2018-05-11T18:26:36.148Z,96854.39
2018-05-11T18:29:03.843Z,96853.81
2018-05-11T18:31:31.355Z,96850.20
2018-05-11T18:33:58.985Z,96857.66
2018-05-11T18:36:26.499Z,96858.70
2018-05-11T18:38:53.984Z,96864.39
2018-05-11T18:41:21.872Z,96854.77
2018-05-11T18:43:49.354Z,96860.08
2018-05-11T18:46:17.106Z,96857.70
2018-05-11T18:48:44.754Z,96861.33
2018-05-11T18:51:12.229Z,96859.39
2018-05-11T18:53:40.178Z,96860.92
2018-05-11T18:56:07.552Z,96866.84
2018-05-11T18:58:35.046Z,96863.84
2018-05-11T19:01:02.575Z,96863.65
2018-05-11T19:03:30.083Z,96880.20
2018-05-11T19:05:57.568Z,96880.00
2018-05-11T19:08:25.065Z,96877.65
2018-05-11T19:10:52.781Z,96883.52
2018-05-11T19:13:20.505Z,96888.52
2018-05-11T19:18:22.006Z,96891.07
2018-05-11T19:20:49.520Z,96900.27
2018-05-11T19:23:17.021Z,96896.99
2018-05-11T19:25:44.523Z,96904.00
2018-05-11T19:28:12.018Z,96906.67
2018-05-11T19:30:39.489Z,96909.82
2018-05-11T19:33:07.008Z,96909.61
2018-05-11T19:35:34.499Z,96908.01
2018-05-11T19:38:02.012Z,96911.11
2018-05-11T19:40:29.493Z,96910.36
2018-05-11T19:42:57.017Z,96907.53
2018-05-11T19:45:24.545Z,96912.83
2018-05-11T19:47:52.081Z,96915.11
2018-05-11T19:50:19.643Z,96918.66
2018-05-11T19:52:47.086Z,96923.06
2018-05-11T19:55:14.601Z,96919.34
2018-05-11T19:57:42.109Z,96925.02
2018-05-11T20:00:09.669Z,96921.29
2018-05-11T20:02:37.150Z,96927.30
2018-05-11T20:05:04.688Z,96920.98
2018-05-11T20:07:32.175Z,96927.42
2018-05-11T20:09:59.772Z,96928.76
2018-05-11T20:12:27.210Z,96932.27
2018-05-11T20:14:54.692Z,96927.22
2018-05-11T20:17:22.197Z,96930.70
2018-05-11T20:19:49.675Z,96930.33
2018-05-11T20:22:17.174Z,96932.09
2018-05-11T20:24:44.671Z,96932.56
2018-05-11T20:27:12.172Z,96930.97
2018-05-11T20:29:39.680Z,96934.83
2018-05-11T20:32:07.189Z,96936.20
2018-05-11T20:34:34.673Z,96940.54
2018-05-11T20:37:02.155Z,96941.47
2018-05-11T20:39:29.641Z,96940.23
2018-05-11T20:41:57.118Z,96939.86
2018-05-11T20:44:24.687Z,96939.03
2018-05-11T20:46:52.167Z,96936.95
2018-05-11T20:49:19.682Z,96937.40
2018-05-11T20:51:47.423Z,96942.59
2018-05-11T20:54:15.084Z,96940.05
2018-05-11T20:56:42.758Z,96942.67
2018-05-11T20:59:10.563Z,96946.11
2018-05-11T21:01:38.289Z,96937.59
2018-05-11T21:04:05.759Z,96947.02
2018-05-11T21:06:33.274Z,96941.94
2018-05-11T21:09:01.050Z,96947.11
2018-05-11T21:11:28.665Z,96955.27
2018-05-11T21:13:56.614Z,96946.80
2018-05-11T21:16:24.092Z,96942.17
2018-05-11T21:18:51.601Z,96942.64
2018-05-11T21:21:19.099Z,96942.68
2018-05-11T21:23:46.969Z,96940.57
2018-05-11T21:26:14.446Z,96941.83
2018-05-11T21:28:42.021Z,96941.89
2018-05-11T21:31:09.547Z,96942.73
2018-05-11T21:33:37.107Z,96950.88
2018-05-11T21:36:04.646Z,96948.78
2018-05-11T21:38:32.239Z,96953.92
2018-05-11T21:41:00.122Z,96957.82
2018-05-11T21:43:27.793Z,96959.15
2018-05-11T21:45:55.284Z,96954.92
2018-05-11T21:48:23.054Z,96955.81
2018-05-11T21:50:50.873Z,96957.56
2018-05-11T21:53:18.611Z,96953.80
2018-05-11T21:55:46.091Z,96959.37
2018-05-11T21:58:13.604Z,96950.44
2018-05-11T22:00:41.304Z,96946.23
2018-05-11T22:03:08.793Z,96953.55
2018-05-11T22:05:36.257Z,96954.95
2018-05-11T22:08:03.741Z,96952.45
2018-05-11T22:10:31.250Z,96957.98
2018-05-11T22:12:58.976Z,96952.91
2018-05-11T22:15:26.493Z,96958.88
2018-05-11T22:17:54.216Z,96954.63
2018-05-11T22:20:21.773Z,96957.62
2018-05-11T22:22:49.275Z,96961.05
2018-05-11T22:25:17.054Z,96964.49
2018-05-11T22:27:44.630Z,96964.95
2018-05-11T22:30:12.126Z,96964.52
2018-05-11T22:32:39.591Z,96961.57
2018-05-11T22:35:08.367Z,96965.00
2018-05-11T22:37:35.906Z,96961.60
2018-05-11T22:40:03.412Z,96962.08
2018-05-11T22:42:30.887Z,96960.39
2018-05-11T22:44:58.374Z,96955.31
2018-05-11T22:47:25.881Z,96955.73
2018-05-11T22:49:53.383Z,96957.45
2018-05-11T22:52:20.871Z,96954.45
2018-05-11T22:54:48.358Z,96954.06
2018-05-11T22:57:15.845Z,96954.47
2018-05-11T22:59:43.338Z,96953.63
2018-05-11T23:02:10.832Z,96951.53
2018-05-11T23:04:38.396Z,96949.39
2018-05-11T23:07:05.959Z,96952.41
2018-05-11T23:09:33.424Z,96957.14
2018-05-11T23:12:01.128Z,96952.50
2018-05-11T23:14:28.625Z,96952.08
2018-05-11T23:16:56.117Z,96944.84
2018-05-11T23:19:23.653Z,96944.03
2018-05-11T23:21:51.136Z,96938.95
2018-05-11T23:24:18.624Z,96946.62
2018-05-11T23:26:46.110Z,96943.64
2018-05-11T23:29:13.574Z,96954.73
2018-05-11T23:31:41.129Z,96950.05
2018-05-11T23:34:08.608Z,96946.65
2018-05-11T23:36:36.119Z,96948.34
2018-05-11T23:39:03.605Z,96941.56
2018-05-11T23:41:31.083Z,96940.71
2018-05-11T23:43:58.544Z,96936.03
2018-05-11T23:46:26.024Z,96931.80
2018-05-11T23:48:53.502Z,96927.11
2018-05-11T23:51:20.989Z,96929.24
2018-05-11T23:53:48.449Z,96924.59
2018-05-11T23:56:15.922Z,96924.19
2018-05-11T23:58:43.417Z,96922.48
